createdAt,value
2022-08-07T00:02:35.389Z,4.70
2022-08-07T00:04:15.584Z,4.50
2022-08-07T00:06:51.782Z,3.97
2022-08-07T00:09:22.439Z,4.40
2022-08-07T00:11:55.941Z,5.20
2022-08-07T00:14:31.689Z,5.17
2022-08-07T00:17:06.608Z,8.20
2022-08-07T00:20:01.368Z,7.23
2022-08-07T00:22:24.371Z,5.47
2022-08-07T00:25:11.021Z,4.43
2022-08-07T00:27:53.513Z,4.97
2022-08-07T00:30:27.025Z,5.60
2022-08-07T00:33:01.085Z,4.70
2022-08-07T00:35:30.809Z,6.17
2022-08-07T00:38:00.755Z,5.57
2022-08-07T00:40:39.228Z,7.50
2022-08-07T00:44:01.274Z,4.60
2022-08-07T00:46:03.797Z,5.17
2022-08-07T00:48:32.318Z,5.70
2022-08-07T00:51:02.907Z,6.10
2022-08-07T00:53:39.183Z,6.50
2022-08-07T00:56:19.136Z,5.80
2022-08-07T00:58:49.836Z,4.40
2022-08-07T01:01:20.594Z,4.37
2022-08-07T01:03:55.484Z,4.60
2022-08-07T01:06:29.707Z,6.13
2022-08-07T01:09:01.523Z,4.70
2022-08-07T01:12:23.671Z,5.20
2022-08-07T01:14:28.700Z,5.10
2022-08-07T01:16:58.297Z,6.83
2022-08-07T01:19:32.530Z,3.70
2022-08-07T01:22:03.097Z,4.90
2022-08-07T01:24:32.838Z,4.30
2022-08-07T01:27:02.597Z,3.73
2022-08-07T01:29:33.844Z,5.37
2022-08-07T01:32:05.484Z,5.37
2022-08-07T01:34:47.450Z,6.53
2022-08-07T01:37:18.876Z,4.63
2022-08-07T01:39:48.865Z,8.53
2022-08-07T01:42:39.610Z,4.27
2022-08-07T01:45:09.857Z,3.90
2022-08-07T01:48:20.824Z,4.00
2022-08-07T01:50:36.688Z,5.70
2022-08-07T01:53:08.558Z,4.50
2022-08-07T01:56:22.786Z,5.07
2022-08-07T01:59:17.576Z,4.43
2022-08-07T02:02:06.181Z,5.47
2022-08-07T02:04:52.499Z,5.17
2022-08-07T02:07:49.863Z,5.77
2022-08-07T02:10:26.984Z,5.40
2022-08-07T02:13:02.874Z,4.73
2022-08-07T02:15:37.278Z,11.50
2022-08-07T02:18:10.357Z,8.17
2022-08-07T02:20:48.676Z,7.27
2022-08-07T02:23:23.958Z,5.83
2022-08-07T02:26:31.081Z,5.03
2022-08-07T02:28:44.966Z,5.00
2022-08-07T02:31:28.476Z,5.60
2022-08-07T02:34:03.207Z,7.50
2022-08-07T02:36:34.533Z,5.77
2022-08-07T02:39:16.034Z,6.30
2022-08-07T02:41:50.565Z,5.23
2022-08-07T02:44:27.505Z,5.97
2022-08-07T02:47:02.768Z,5.50
2022-08-07T02:49:55.865Z,4.90
2022-08-07T02:53:07.162Z,4.53
2022-08-07T02:56:04.469Z,5.27
2022-08-07T02:58:36.917Z,5.30
2022-08-07T03:01:18.752Z,5.60
2022-08-07T03:04:03.343Z,5.77
2022-08-07T03:06:37.623Z,7.53
2022-08-07T03:09:11.175Z,8.73
2022-08-07T03:11:52.684Z,5.93
2022-08-07T03:14:28.138Z,5.30
2022-08-07T03:16:57.861Z,7.13
2022-08-07T03:19:28.876Z,10.97
2022-08-07T03:21:57.358Z,7.10
2022-08-07T03:24:28.232Z,42.00
2022-08-07T03:27:04.908Z,31.37
2022-08-07T03:29:51.307Z,25.27
2022-08-07T03:32:36.214Z,23.50
2022-08-07T03:35:17.556Z,19.37
2022-08-07T03:37:56.484Z,16.20
2022-08-07T03:40:36.037Z,14.60
2022-08-07T03:43:13.578Z,10.63
2022-08-07T03:45:47.624Z,10.37
2022-08-07T03:48:16.496Z,8.13
2022-08-07T03:50:52.091Z,9.70
2022-08-07T03:54:00.574Z,12.13
2022-08-07T03:56:33.350Z,9.40
2022-08-07T03:59:09.840Z,6.43
2022-08-07T04:01:46.847Z,6.77
2022-08-07T04:04:18.473Z,9.47
2022-08-07T04:06:50.882Z,8.20
2022-08-07T04:09:23.102Z,8.60
2022-08-07T04:12:23.580Z,8.00
2022-08-07T04:14:47.728Z,7.13
2022-08-07T04:17:20.034Z,7.70
2022-08-07T04:19:55.083Z,8.20
2022-08-07T04:22:30.081Z,8.63
2022-08-07T04:25:01.819Z,6.80
2022-08-07T04:27:35.685Z,6.13
2022-08-07T04:30:20.959Z,7.13
2022-08-07T04:32:58.288Z,6.80
2022-08-07T04:35:27.468Z,7.20
2022-08-07T04:38:13.024Z,5.53
2022-08-07T04:40:51.662Z,9.53
2022-08-07T04:44:10.354Z,7.87
2022-08-07T04:47:03.827Z,8.77
2022-08-07T04:50:14.205Z,6.50
2022-08-07T04:53:39.884Z,6.40
2022-08-07T04:58:11.443Z,7.53
2022-08-07T05:00:11.221Z,5.60
2022-08-07T05:03:31.183Z,6.87
2022-08-07T05:06:24.170Z,9.03
2022-08-07T05:09:45.518Z,8.53
2022-08-07T05:12:32.136Z,8.03
2022-08-07T05:15:25.013Z,9.33
2022-08-07T05:18:09.051Z,10.90
2022-08-07T05:20:55.054Z,7.70
2022-08-07T05:23:41.980Z,9.03
2022-08-07T05:26:24.131Z,6.30
2022-08-07T05:29:04.315Z,6.43
2022-08-07T05:31:47.554Z,7.73
2022-08-07T05:34:26.360Z,7.77
2022-08-07T05:36:58.246Z,7.53
2022-08-07T05:40:16.709Z,8.43
2022-08-07T05:42:15.814Z,8.33
2022-08-07T05:45:14.414Z,7.57
2022-08-07T05:48:01.762Z,8.60
2022-08-07T05:50:34.362Z,7.13
2022-08-07T05:53:04.120Z,6.63
2022-08-07T05:56:02.217Z,6.20
2022-08-07T05:58:30.306Z,6.50
2022-08-07T06:01:19.970Z,5.30
2022-08-07T06:04:01.039Z,5.70
2022-08-07T06:06:29.797Z,4.33
2022-08-07T06:09:04.825Z,5.13
2022-08-07T06:11:35.637Z,3.77
2022-08-07T06:14:13.379Z,4.97
2022-08-07T06:16:56.050Z,6.60
2022-08-07T06:19:52.108Z,3.30
2022-08-07T06:22:23.090Z,3.93
2022-08-07T06:24:57.973Z,3.40
2022-08-07T06:27:43.975Z,3.00
2022-08-07T06:30:31.861Z,4.30
2022-08-07T06:33:04.503Z,3.30
2022-08-07T06:35:45.291Z,3.50
2022-08-07T06:38:19.335Z,4.20
2022-08-07T06:40:54.755Z,3.90
2022-08-07T06:43:39.608Z,4.33
2022-08-07T06:46:11.580Z,3.17
2022-08-07T06:48:44.493Z,3.60
2022-08-07T06:51:24.622Z,3.40
2022-08-07T06:55:30.063Z,3.80
2022-08-07T06:56:55.780Z,3.30
2022-08-07T07:00:14.269Z,5.77
2022-08-07T07:02:49.266Z,3.90
2022-08-07T07:06:02.960Z,5.50
2022-08-07T07:08:06.818Z,2.40
2022-08-07T07:10:38.686Z,2.23
2022-08-07T07:13:43.683Z,2.70
2022-08-07T07:16:27.184Z,4.93
2022-08-07T07:19:34.127Z,2.17
2022-08-07T07:22:04.731Z,3.00
2022-08-07T07:24:57.073Z,3.00
2022-08-07T07:28:02.120Z,3.07
2022-08-07T07:30:41.755Z,2.40
2022-08-07T07:33:17.515Z,4.17
2022-08-07T07:36:04.954Z,2.10
2022-08-07T07:38:45.957Z,1.97
2022-08-07T07:41:21.694Z,4.13
2022-08-07T07:44:17.320Z,1.92
2022-08-07T07:46:57.316Z,2.45
2022-08-07T07:50:35.220Z,2.90
2022-08-07T07:52:28.629Z,1.95
2022-08-07T07:54:58.843Z,2.67
2022-08-07T07:57:28.054Z,2.20
2022-08-07T08:00:29.904Z,1.88
2022-08-07T08:03:16.906Z,3.83
2022-08-07T08:06:07.497Z,2.50
2022-08-07T08:08:43.131Z,1.90
2022-08-07T08:11:16.153Z,2.22
2022-08-07T08:14:01.045Z,2.63
2022-08-07T08:16:50.409Z,1.80
2022-08-07T08:20:19.626Z,2.23
2022-08-07T08:22:56.141Z,2.27
2022-08-07T08:25:51.193Z,1.80
2022-08-07T08:28:37.350Z,1.70
2022-08-07T08:31:16.185Z,2.73
2022-08-07T08:33:55.716Z,3.53
2022-08-07T08:36:32.852Z,1.40
2022-08-07T08:39:05.530Z,3.75
2022-08-07T08:42:11.828Z,1.83
2022-08-07T08:45:59.209Z,2.08
2022-08-07T08:48:55.625Z,1.60
2022-08-07T08:52:14.382Z,2.17
2022-08-07T08:55:55.143Z,1.97
2022-08-07T08:58:43.381Z,1.80
2022-08-07T09:02:35.050Z,2.53
2022-08-07T09:05:37.133Z,1.60
2022-08-07T09:08:46.757Z,2.80
2022-08-07T09:11:43.449Z,2.67
2022-08-07T09:14:38.991Z,1.70
2022-08-07T09:18:11.485Z,1.90
2022-08-07T09:21:34.264Z,1.73
2022-08-07T09:24:58.747Z,1.80
2022-08-07T09:30:01.953Z,5.20
2022-08-07T09:31:19.768Z,4.60
2022-08-07T09:35:04.569Z,2.20
2022-08-07T09:38:10.413Z,2.50
2022-08-07T09:41:59.055Z,2.67
2022-08-07T09:47:23.985Z,2.08
2022-08-07T09:49:59.688Z,2.17
2022-08-07T09:52:40.755Z,2.33
2022-08-07T09:56:04.918Z,2.30
2022-08-07T09:59:46.112Z,1.70
2022-08-07T10:04:03.279Z,1.83
2022-08-07T10:06:56.978Z,2.07
2022-08-07T10:11:07.721Z,1.60
2022-08-07T10:14:35.901Z,2.27
2022-08-07T10:18:08.918Z,1.60
2022-08-07T10:22:12.633Z,1.93
2022-08-07T10:24:56.255Z,1.60
2022-08-07T10:28:37.164Z,1.80
2022-08-07T10:31:50.504Z,1.90
2022-08-07T10:35:20.543Z,3.10
2022-08-07T10:39:00.245Z,2.87
2022-08-07T10:42:09.332Z,2.67
2022-08-07T10:45:57.120Z,1.90
2022-08-07T10:49:24.729Z,1.90
2022-08-07T10:52:51.208Z,1.83
2022-08-07T10:55:53.853Z,5.10
2022-08-07T10:59:06.250Z,3.00
2022-08-07T11:02:32.879Z,2.93
2022-08-07T11:05:53.404Z,2.53
2022-08-07T11:08:55.041Z,3.30
2022-08-07T11:11:59.275Z,1.50
2022-08-07T11:15:00.181Z,6.13
2022-08-07T11:18:03.580Z,1.90
2022-08-07T11:21:35.150Z,2.53
2022-08-07T11:24:45.567Z,2.10
2022-08-07T11:28:03.013Z,1.90
2022-08-07T11:31:20.078Z,2.57
2022-08-07T11:34:10.255Z,2.10
2022-08-07T11:37:58.019Z,1.70
2022-08-07T11:41:10.578Z,2.13
2022-08-07T11:44:37.953Z,3.10
2022-08-07T11:47:56.132Z,2.33
2022-08-07T11:51:44.837Z,1.60
2022-08-07T11:55:12.898Z,2.13
2022-08-07T11:58:33.377Z,1.60
2022-08-07T12:02:20.689Z,2.80
2022-08-07T12:05:48.913Z,2.43
2022-08-07T12:09:02.113Z,1.90
2022-08-07T12:12:18.467Z,2.13
2022-08-07T12:15:17.443Z,3.00
2022-08-07T12:18:53.562Z,1.70
2022-08-07T12:22:39.247Z,3.90
2022-08-07T12:26:03.250Z,2.80
2022-08-07T12:29:00.601Z,3.70
2022-08-07T12:31:52.779Z,2.43
2022-08-07T12:34:38.915Z,5.00
2022-08-07T12:37:16.981Z,4.90
2022-08-07T12:39:57.505Z,2.13
2022-08-07T12:42:33.447Z,2.23
2022-08-07T12:45:21.737Z,2.40
2022-08-07T12:48:28.216Z,2.07
2022-08-07T12:51:19.077Z,7.87
2022-08-07T12:54:37.379Z,2.20
2022-08-07T12:57:09.963Z,2.17
2022-08-07T12:59:54.227Z,3.03
2022-08-07T13:03:26.957Z,2.53
2022-08-07T13:07:17.922Z,3.07
2022-08-07T13:10:51.615Z,5.30
2022-08-07T13:14:51.050Z,2.10
2022-08-07T13:17:52.686Z,2.63
2022-08-07T13:20:51.135Z,2.00
2022-08-07T13:24:30.921Z,2.00
2022-08-07T13:28:13.810Z,3.93
2022-08-07T13:30:40.429Z,2.50
2022-08-07T13:34:34.616Z,1.87
2022-08-07T13:37:19.897Z,2.07
2022-08-07T13:40:58.145Z,2.00
2022-08-07T13:43:29.923Z,3.90
2022-08-07T13:46:12.857Z,2.30
2022-08-07T13:49:00.088Z,1.97
2022-08-07T13:52:05.632Z,2.97
2022-08-07T13:54:30.363Z,2.13
2022-08-07T13:57:08.605Z,2.03
2022-08-07T13:59:55.083Z,4.57
2022-08-07T14:02:49.311Z,1.80
2022-08-07T14:05:25.059Z,2.50
2022-08-07T14:08:09.415Z,1.80
2022-08-07T14:10:43.693Z,2.20
2022-08-07T14:13:33.829Z,4.70
2022-08-07T14:16:15.430Z,1.83
2022-08-07T14:18:57.181Z,2.90
2022-08-07T14:22:03.865Z,1.80
2022-08-07T14:24:48.461Z,3.80
2022-08-07T14:28:21.087Z,2.77
2022-08-07T14:30:40.719Z,2.60
2022-08-07T14:33:10.159Z,2.53
2022-08-07T14:35:47.669Z,2.90
2022-08-07T14:38:30.681Z,2.23
2022-08-07T14:44:10.069Z,1.90
2022-08-07T14:46:58.627Z,1.80
2022-08-07T14:49:56.703Z,2.87
2022-08-07T14:52:28.796Z,3.60
2022-08-07T14:55:02.458Z,3.10
2022-08-07T14:57:57.917Z,2.23
2022-08-07T15:00:34.695Z,1.73
2022-08-07T15:06:04.304Z,4.47
2022-08-07T15:08:55.010Z,3.90
2022-08-07T15:14:30.335Z,3.33
2022-08-07T15:17:13.767Z,2.23
2022-08-07T15:20:33.238Z,2.17
2022-08-07T15:25:59.911Z,3.20
2022-08-07T15:32:00.945Z,2.57
2022-08-07T15:34:17.147Z,2.37
2022-08-07T15:37:02.925Z,3.27
2022-08-07T15:49:25.549Z,3.07
2022-08-07T15:52:14.022Z,2.27
2022-08-07T15:54:50.889Z,3.03
2022-08-07T15:57:47.382Z,2.57
2022-08-07T16:00:33.500Z,1.93
2022-08-07T16:03:21.803Z,3.50
2022-08-07T16:06:09.638Z,1.80
2022-08-07T16:08:47.445Z,2.10
2022-08-07T16:13:01.018Z,2.10
2022-08-07T16:16:47.825Z,1.93
2022-08-07T16:19:23.557Z,2.50
2022-08-07T16:23:53.969Z,3.20
2022-08-07T16:26:30.402Z,2.03
2022-08-07T16:30:11.303Z,2.97
2022-08-07T16:34:03.122Z,1.90
2022-08-07T16:36:33.822Z,3.20
2022-08-07T16:40:23.309Z,7.73
2022-08-07T16:44:03.953Z,2.90
2022-08-07T16:47:52.931Z,3.90
2022-08-07T16:51:20.909Z,2.43
2022-08-07T16:54:19.041Z,5.70
2022-08-07T16:58:02.285Z,2.73
2022-08-07T17:01:34.225Z,2.73
2022-08-07T17:06:19.728Z,2.33
2022-08-07T17:08:17.919Z,8.53
2022-08-07T17:10:59.749Z,2.90
2022-08-07T17:14:19.081Z,2.63
2022-08-07T17:17:14.147Z,2.10
2022-08-07T17:20:01.805Z,2.40
2022-08-07T17:23:08.611Z,2.77
2022-08-07T17:26:24.025Z,2.00
2022-08-07T17:30:14.142Z,3.03
2022-08-07T17:33:39.135Z,2.83
2022-08-07T17:36:58.078Z,5.53
2022-08-07T17:40:07.950Z,3.20
2022-08-07T17:44:01.853Z,5.70
2022-08-07T17:47:04.734Z,3.30
2022-08-07T17:49:56.277Z,3.27
2022-08-07T17:52:47.211Z,3.10
2022-08-07T17:55:54.744Z,2.30
2022-08-07T17:59:03.702Z,2.50
2022-08-07T18:01:40.368Z,3.90
2022-08-07T18:04:45.044Z,2.20
2022-08-07T18:07:37.439Z,3.47
2022-08-07T18:12:16.156Z,4.10
2022-08-07T18:14:50.071Z,2.47
2022-08-07T18:18:45.093Z,3.70
2022-08-07T18:21:58.372Z,2.70
2022-08-07T18:25:24.079Z,3.80
2022-08-07T18:30:07.390Z,4.77
2022-08-07T18:32:24.847Z,3.40
2022-08-07T18:35:53.621Z,4.30
2022-08-07T18:38:58.641Z,3.10
2022-08-07T18:42:17.112Z,2.57
2022-08-07T18:45:43.813Z,3.53
2022-08-07T18:50:32.679Z,3.87
2022-08-07T18:52:38.729Z,4.90
2022-08-07T18:56:30.732Z,3.30
2022-08-07T18:59:58.917Z,2.53
2022-08-07T19:02:58.976Z,3.20
2022-08-07T19:06:05.000Z,3.23
2022-08-07T19:09:09.311Z,2.60
2022-08-07T19:12:54.812Z,2.27
2022-08-07T19:16:43.060Z,2.40
2022-08-07T19:19:32.005Z,5.23
2022-08-07T19:22:44.870Z,7.90
2022-08-07T19:26:22.649Z,2.97
2022-08-07T19:28:29.802Z,4.50
2022-08-07T19:31:58.606Z,2.10
2022-08-07T19:34:32.694Z,3.33
2022-08-07T19:37:17.329Z,3.20
2022-08-07T19:40:03.215Z,4.03
2022-08-07T19:42:42.714Z,2.70
2022-08-07T19:46:05.077Z,4.20
2022-08-07T19:48:19.045Z,4.60
2022-08-07T19:50:54.552Z,2.83
2022-08-07T19:54:30.887Z,2.83
2022-08-07T19:58:02.348Z,2.73
2022-08-07T19:59:41.181Z,2.80
2022-08-07T20:02:25.998Z,3.60
2022-08-07T20:04:58.203Z,4.23
2022-08-07T20:07:47.007Z,3.53
2022-08-07T20:10:36.826Z,4.13
2022-08-07T20:13:49.787Z,5.00
2022-08-07T20:16:36.181Z,4.80
2022-08-07T20:19:11.909Z,4.17
2022-08-07T20:21:48.328Z,5.03
2022-08-07T20:24:32.859Z,2.77
2022-08-07T20:27:11.809Z,4.70
2022-08-07T20:30:00.367Z,4.13
2022-08-07T20:32:44.957Z,3.60
2022-08-07T20:35:26.635Z,4.67
2022-08-07T20:37:59.741Z,2.90
2022-08-07T20:40:42.158Z,3.30
2022-08-07T20:43:19.474Z,4.27
2022-08-07T20:46:28.787Z,4.93
2022-08-07T20:49:54.305Z,3.10
2022-08-07T20:51:40.616Z,3.80
2022-08-07T20:54:29.615Z,3.50
2022-08-07T20:57:10.320Z,3.80
2022-08-07T21:00:07.973Z,5.50
2022-08-07T21:02:54.098Z,3.80
2022-08-07T21:05:51.442Z,6.83
2022-08-07T21:09:03.798Z,5.23
2022-08-07T21:11:50.171Z,4.00
2022-08-07T21:14:33.933Z,4.80
2022-08-07T21:18:09.003Z,6.60
2022-08-07T21:20:05.662Z,3.67
2022-08-07T21:22:53.301Z,5.47
2022-08-07T21:26:01.368Z,4.63
2022-08-07T21:28:59.678Z,5.80
2022-08-07T21:32:43.659Z,4.67
2022-08-07T21:35:12.593Z,4.50
2022-08-07T21:38:08.982Z,4.90
2022-08-07T21:41:22.536Z,3.23
2022-08-07T21:44:28.464Z,4.70
2022-08-07T21:47:54.384Z,7.87
2022-08-07T21:51:51.363Z,4.43
2022-08-07T21:54:34.149Z,4.10
2022-08-07T21:57:51.544Z,6.10
2022-08-07T22:00:25.793Z,4.80
2022-08-07T22:03:42.137Z,3.43
2022-08-07T22:06:33.835Z,3.53
2022-08-07T22:09:17.607Z,4.00
2022-08-07T22:12:04.775Z,4.37
2022-08-07T22:16:38.834Z,3.93
2022-08-07T22:18:41.064Z,3.10
2022-08-07T22:21:22.006Z,4.10
2022-08-07T22:24:03.874Z,3.77
2022-08-07T22:27:06.079Z,5.17
2022-08-07T22:30:02.189Z,3.67
2022-08-07T22:32:47.088Z,7.97
2022-08-07T22:35:18.489Z,5.97
2022-08-07T22:38:48.884Z,4.33
2022-08-07T22:42:18.980Z,3.87
2022-08-07T22:44:58.321Z,3.97
2022-08-07T22:48:13.698Z,3.67
2022-08-07T22:51:49.335Z,4.67
2022-08-07T22:55:17.135Z,4.10
2022-08-07T22:58:43.282Z,4.20
2022-08-07T23:02:20.308Z,4.60
2022-08-07T23:06:09.037Z,5.63
2022-08-07T23:09:00.642Z,8.33
2022-08-07T23:12:40.541Z,4.40
2022-08-07T23:16:08.791Z,4.10
2022-08-07T23:20:05.574Z,3.90
2022-08-07T23:24:05.176Z,4.77
2022-08-07T23:26:39.447Z,3.67
2022-08-07T23:30:36.228Z,4.23
2022-08-07T23:34:36.541Z,6.57
2022-08-07T23:37:29.264Z,5.00
2022-08-07T23:40:53.124Z,5.20
2022-08-07T23:44:14.491Z,6.20
2022-08-07T23:47:42.195Z,5.23
2022-08-07T23:50:47.794Z,4.20
2022-08-07T23:53:59.135Z,5.50
2022-08-07T23:57:09.215Z,5.00
